Time;durP1;ratioP1;P1;durP2;ratioP2;P2;SDS_P1;SDS_P2;PMS_P1;PMS_P2;Temp;Humidity;BMP_temperature;BMP_pressure;BME280_temperature;BME280_humidity;BME280_pressure;Samples;Min_cycle;Max_cycle;Signal;HPM_P1;HPM_P2
2023/06/14 04:30:35;;;;;;;;;18.75;16.25;;;;;23.89;39.48;100845.16;5063771;27;46432;-75
2023/06/14 04:33:00;;;;;;;;;15.00;15.00;;;;;23.80;39.44;100835.13;5036944;28;45408;-75
2023/06/14 04:35:27;;;;;;;;;11.25;11.25;;;;;23.91;39.79;100848.56;5014049;28;45590;-75
2023/06/14 04:37:53;;;;;;;;;13.00;13.00;;;;;23.91;39.77;100848.56;5037805;28;46284;-75
2023/06/14 04:40:19;;;;;;;;;18.00;17.00;;;;;23.90;39.41;100846.88;5055197;28;45403;-76
2023/06/14 04:42:45;;;;;;;;;16.50;15.50;;;;;23.94;39.34;100858.38;5055765;28;45302;-75
2023/06/14 04:45:12;;;;;;;;;14.75;12.75;;;;;23.88;39.64;100843.41;5055352;28;45562;-75
2023/06/14 04:47:38;;;;;;;;;12.75;12.75;;;;;23.93;39.54;100851.16;5055380;28;46171;-74
2023/06/14 04:50:04;;;;;;;;;15.00;15.00;;;;;23.93;39.46;100856.63;5043376;28;45238;-75
2023/06/14 04:52:30;;;;;;;;;16.75;15.00;;;;;23.94;39.67;100851.00;5046126;28;45653;-75
2023/06/14 04:54:56;;;;;;;;;15.75;14.50;;;;;23.96;39.68;100853.59;5055150;28;45549;-76
2023/06/14 04:57:22;;;;;;;;;15.75;13.50;;;;;23.97;39.56;100856.19;5055447;28;46010;-75
2023/06/14 04:59:48;;;;;;;;;12.25;12.25;;;;;23.93;40.00;100851.16;5055114;28;45399;-75
2023/06/14 05:02:14;;;;;;;;;17.00;15.25;;;;;23.96;39.61;100853.59;5055598;28;45649;-76
2023/06/14 05:04:39;;;;;;;;;16.25;15.00;;;;;24.02;39.53;100861.19;5055176;28;45209;-75
2023/06/14 05:07:09;;;;;;;;;13.25;13.00;;;;;24.02;39.93;100847.50;5054845;28;46068;-77
2023/06/14 05:09:34;;;;;;;;;15.00;14.75;;;;;24.11;39.67;100857.53;5055054;28;45286;-76
2023/06/14 05:12:00;;;;;;;;;19.25;16.75;;;;;24.17;39.67;100861.50;5042106;28;45196;-76
2023/06/14 05:14:25;;;;;;;;;13.75;13.00;;;;;24.12;39.76;100838.19;5034225;28;46803;-76
2023/06/14 05:16:51;;;;;;;;;19.25;19.25;;;;;24.25;39.36;100856.16;5055148;28;45994;-76
2023/06/14 05:19:17;;;;;;;;;15.75;15.75;;;;;24.22;39.86;100846.38;5054979;28;45389;-77
2023/06/14 05:21:43;;;;;;;;;15.25;13.50;;;;;24.37;39.82;100860.41;5054584;28;45484;-74
2023/06/14 05:24:09;;;;;;;;;16.25;15.25;;;;;24.41;39.69;100859.91;5054462;28;45558;-76
2023/06/14 05:26:35;;;;;;;;;19.25;19.00;;;;;24.45;40.03;100858.59;5054606;28;46952;-80
2023/06/14 05:29:01;;;;;;;;;17.25;15.75;;;;;24.45;40.00;100853.13;5054803;28;45311;-78
2023/06/14 05:31:27;;;;;;;;;17.75;16.25;;;;;24.55;39.67;100866.75;5035788;28;45424;-73
2023/06/14 05:33:53;;;;;;;;;20.50;16.75;;;;;24.58;39.71;100868.31;5045965;28;45238;-77
2023/06/14 05:36:21;;;;;;;;;20.75;18.00;;;;;24.61;39.45;100874.31;5044259;28;45977;-76
2023/06/14 05:38:46;;;;;;;;;23.75;20.25;;;;;24.62;39.38;100866.97;5034444;28;45364;-75
2023/06/14 05:41:11;;;;;;;;;15.75;14.00;;;;;24.65;39.13;100872.16;5034371;28;45324;-75
2023/06/14 05:43:37;;;;;;;;;18.00;15.50;;;;;24.65;39.21;100872.16;5033592;28;45459;-73
2023/06/14 05:46:02;;;;;;;;;16.25;14.75;;;;;24.63;39.60;100864.06;5047265;28;45951;-74
2023/06/14 05:48:28;;;;;;;;;16.75;15.50;;;;;24.71;39.04;100877.84;5045147;28;45454;-74
2023/06/14 05:50:55;;;;;;;;;17.25;14.25;;;;;24.73;39.55;100873.06;5045008;28;45288;-70
2023/06/14 05:53:20;;;;;;;;;18.50;14.25;;;;;24.77;39.41;100876.34;5036607;28;45301;-71
2023/06/14 05:55:45;;;;;;;;;16.75;14.50;;;;;24.78;39.12;100878.06;5034415;28;46636;-70
2023/06/14 05:58:13;;;;;;;;;18.75;17.00;;;;;24.76;39.21;100869.13;5034356;28;45327;-71
2023/06/14 06:00:39;;;;;;;;;19.25;14.75;;;;;24.82;39.25;100874.00;5033854;28;45257;-71
2023/06/14 06:03:04;;;;;;;;;17.25;14.75;;;;;24.84;39.51;100872.81;5033756;28;45266;-73
2023/06/14 06:05:30;;;;;;;;;13.75;13.75;;;;;24.83;38.67;100878.47;5033756;28;45484;-71
2023/06/14 06:07:55;;;;;;;;;17.50;16.50;;;;;24.89;39.06;100878.69;5033990;28;45276;-70
2023/06/14 06:10:21;;;;;;;;;14.25;14.25;;;;;24.94;38.52;100885.59;5035707;28;45385;-72
2023/06/14 06:12:48;;;;;;;;;14.75;14.25;;;;;24.94;38.35;100882.84;5050782;28;45607;-72
2023/06/14 06:15:14;;;;;;;;;16.25;15.50;;;;;25.01;37.96;100890.28;5034056;28;46589;-69
2023/06/14 06:17:40;;;;;;;;;16.75;14.25;;;;;25.03;38.07;100885.50;5033765;28;45328;-71
2023/06/14 06:20:08;;;;;;;;;12.75;12.75;;;;;25.07;37.49;100891.53;5034426;28;45155;-71
2023/06/14 06:22:36;;;;;;;;;12.75;12.75;;;;;25.07;36.30;100895.16;5033782;28;45247;-70
2023/06/14 06:25:02;;;;;;;;;17.25;15.75;;;;;25.07;37.14;100886.91;5033255;28;46369;-71
2023/06/14 06:27:27;;;;;;;;;16.50;16.50;;;;;25.13;36.17;100896.38;5032379;28;45368;-70
2023/06/14 06:29:52;;;;;;;;;19.00;18.50;;;;;25.12;35.69;100887.28;5034031;28;45461;-71
2023/06/14 06:32:18;;;;;;;;;19.00;16.75;;;;;25.07;35.24;100889.66;5033178;28;45352;-72
2023/06/14 06:34:43;;;;;;;;;21.75;16.25;;;;;25.10;35.35;100892.06;5049268;28;45363;-72
2023/06/14 06:37:09;;;;;;;;;16.75;14.75;;;;;25.16;36.22;100890.59;5052480;28;45244;-73
2023/06/14 06:39:34;;;;;;;;;14.75;14.75;;;;;25.10;34.76;100891.19;5043300;28;45248;-71
2023/06/14 06:42:00;;;;;;;;;17.75;16.00;;;;;25.18;35.45;100897.59;5053428;28;45920;-72
2023/06/14 06:44:25;;;;;;;;;15.25;14.25;;;;;25.19;34.21;100902.09;5057529;28;45337;-71
2023/06/14 06:46:50;;;;;;;;;17.50;16.75;;;;;25.23;34.84;100900.75;5057074;28;52858;-72
2023/06/14 06:49:16;;;;;;;;;17.25;15.75;;;;;25.24;35.41;100897.00;5056966;28;49387;-71
2023/06/14 06:51:42;;;;;;;;;12.00;12.00;;;;;25.29;34.80;100907.47;5052740;28;45335;-71
2023/06/14 06:54:08;;;;;;;;;17.00;14.50;;;;;25.34;34.96;100907.88;5052519;28;45346;-70
2023/06/14 06:56:34;;;;;;;;;18.50;17.50;;;;;25.33;35.06;100906.13;5057037;28;45189;-73
2023/06/14 06:59:00;;;;;;;;;15.50;15.50;;;;;25.39;35.06;100912.84;5057531;28;45390;-72
2023/06/14 07:01:25;;;;;;;;;12.25;12.25;;;;;25.42;34.60;100907.06;5056696;28;45489;-72
2023/06/14 07:03:51;;;;;;;;;21.50;15.00;;;;;25.48;33.97;100910.00;5057142;28;45388;-71
2023/06/14 07:06:20;;;;;;;;;14.50;12.75;;;;;25.41;32.75;100922.66;5056576;28;45348;-72
2023/06/14 07:08:46;;;;;;;;;14.50;14.50;;;;;25.46;33.01;100909.28;5038010;28;45508;-72
2023/06/14 07:11:11;;;;;;;;;14.75;13.00;;;;;25.52;33.44;100913.28;5055228;28;45439;-72
2023/06/14 07:13:37;;;;;;;;;17.00;17.00;;;;;25.56;33.71;100920.16;5046336;28;45341;-71
2023/06/14 07:16:04;;;;;;;;;16.50;15.75;;;;;25.59;33.64;100919.88;5036372;28;45255;-71
2023/06/14 07:18:30;;;;;;;;;15.50;14.25;;;;;25.62;34.56;100920.41;5036706;28;45365;-72
2023/06/14 07:20:56;;;;;;;;;16.25;15.00;;;;;25.71;33.77;100928.69;5035694;28;45592;-71
2023/06/14 07:23:22;;;;;;;;;16.50;16.50;;;;;25.75;33.71;100930.09;5035686;28;45791;-71
2023/06/14 07:25:47;;;;;;;;;16.50;15.50;;;;;25.77;33.44;100926.16;5036374;28;45606;-71
2023/06/14 07:28:13;;;;;;;;;18.25;14.25;;;;;25.81;33.03;100935.78;5036944;28;45603;-72
2023/06/14 07:30:38;;;;;;;;;15.25;15.25;;;;;25.90;33.74;100944.91;5036009;28;45487;-73
2023/06/14 07:33:03;;;;;;;;;13.25;13.25;;;;;25.94;33.24;100938.09;5038055;28;45382;-71
2023/06/14 07:35:29;;;;;;;;;17.25;14.75;;;;;25.96;33.27;100934.13;5051626;28;45516;-71
2023/06/14 07:37:54;;;;;;;;;16.50;16.25;;;;;25.98;32.90;100932.09;5055945;28;45567;-69
2023/06/14 07:40:21;;;;;;;;;13.75;13.75;;;;;26.03;33.06;100945.31;5051073;28;53991;-73
2023/06/14 07:42:46;;;;;;;;;21.75;16.50;;;;;26.07;33.05;100940.34;5056570;28;45431;-73
2023/06/14 07:45:13;;;;;;;;;15.00;13.75;;;;;26.15;33.19;100943.13;5055489;28;45378;-71
2023/06/14 07:47:38;;;;;;;;;14.75;14.50;;;;;26.21;33.03;100951.56;5056634;28;45439;-71
2023/06/14 07:50:04;;;;;;;;;17.75;16.25;;;;;26.22;32.84;100947.78;5055799;28;45524;-72
2023/06/14 07:52:30;;;;;;;;;20.00;16.50;;;;;26.24;33.50;100943.00;5055108;28;46496;-72
2023/06/14 07:54:56;;;;;;;;;21.75;17.00;;;;;26.30;32.18;100955.25;5054584;28;45672;-72
2023/06/14 07:57:22;;;;;;;;;22.25;19.75;;;;;26.30;32.66;100952.50;5045691;28;45302;-70
2023/06/14 07:59:47;;;;;;;;;17.00;15.25;;;;;26.33;32.59;100957.66;5050923;28;45484;-70
2023/06/14 08:02:12;;;;;;;;;20.00;18.50;;;;;26.28;32.64;100938.06;5048417;28;46605;-70
2023/06/14 08:04:38;;;;;;;;;18.25;16.25;;;;;26.35;32.27;100950.13;5046177;28;45648;-71
2023/06/14 08:07:04;;;;;;;;;20.75;16.25;;;;;26.38;31.86;100949.75;5047388;28;45459;-69
2023/06/14 08:09:29;;;;;;;;;19.25;16.25;;;;;26.44;31.74;100957.38;5052116;28;45449;-71
2023/06/14 08:11:56;;;;;;;;;16.50;15.25;;;;;26.46;32.25;100958.03;5040762;28;46339;-71
2023/06/14 08:14:21;;;;;;;;;18.25;15.00;;;;;26.49;31.26;100952.22;5051522;28;45246;-69
2023/06/14 08:16:46;;;;;;;;;17.75;17.75;;;;;26.55;31.67;100951.53;5050442;28;45346;-70
2023/06/14 08:19:12;;;;;;;;;18.75;17.00;;;;;26.60;30.34;100951.03;5044407;28;48710;-71
2023/06/14 08:21:37;;;;;;;;;12.75;12.00;;;;;26.69;29.92;100952.78;5055614;28;45243;-69
2023/06/14 08:24:03;;;;;;;;;14.50;13.25;;;;;26.73;30.24;100960.50;5033583;28;51569;-70
2023/06/14 08:26:29;;;;;;;;;14.00;12.75;;;;;26.77;30.33;100960.19;5055545;28;45658;-70
2023/06/14 08:28:55;;;;;;;;;19.75;16.50;;;;;26.79;31.34;100950.72;5054251;28;45525;-72
2023/06/14 08:31:21;;;;;;;;;14.00;13.75;;;;;26.86;31.65;100957.28;5046160;28;45454;-71
2023/06/14 08:33:46;;;;;;;;;19.00;12.50;;;;;26.91;30.87;100946.63;5047522;28;45307;-72
2023/06/14 08:36:12;;;;;;;;;19.50;14.50;;;;;26.97;30.76;100956.94;5022727;28;45376;-71
2023/06/14 08:38:38;;;;;;;;;16.75;15.25;;;;;27.01;30.15;100952.84;5051820;28;45523;-71
2023/06/14 08:41:06;;;;;;;;;13.75;12.25;;;;;27.06;29.65;100960.56;5055246;28;46336;-71
2023/06/14 08:43:31;;;;;;;;;18.00;15.75;;;;;27.02;29.57;100954.56;5055298;28;45280;-71
2023/06/14 08:46:06;;;;;;;;;14.75;12.50;;;;;27.10;29.74;100959.19;5055755;28;45503;-72
2023/06/14 08:48:32;;;;;;;;;13.50;12.25;;;;;27.13;28.88;100958.88;5054934;28;45514;-71
2023/06/14 08:51:03;;;;;;;;;9.50;9.50;;;;;27.17;27.91;100960.22;5034720;28;46051;-70
2023/06/14 08:53:33;;;;;;;;;14.00;12.75;;;;;27.22;27.94;100968.81;5053898;28;45409;-71
2023/06/14 08:56:04;;;;;;;;;16.75;13.25;;;;;27.25;28.02;100962.09;5055326;28;45381;-70
2023/06/14 08:58:31;;;;;;;;;11.50;11.50;;;;;27.25;27.12;100967.63;5054930;28;45426;-71
2023/06/14 09:00:58;;;;;;;;;13.75;12.75;;;;;27.27;27.79;100974.69;5054586;28;45949;-72
2023/06/14 09:03:29;;;;;;;;;17.25;14.00;;;;;27.26;27.00;100972.09;5054924;28;45448;-71
2023/06/14 09:05:56;;;;;;;;;15.50;15.50;;;;;27.24;27.58;100969.50;5020704;28;45584;-71
2023/06/14 09:08:23;;;;;;;;;16.00;12.75;;;;;27.27;27.43;100968.31;5052220;28;45435;-70
2023/06/14 09:10:48;;;;;;;;;14.00;12.25;;;;;27.32;26.44;100960.38;5049063;28;46193;-72
2023/06/14 09:13:13;;;;;;;;;10.00;10.00;;;;;27.40;27.15;100969.50;5042585;28;45332;-71
2023/06/14 09:15:39;;;;;;;;;12.75;11.50;;;;;27.42;27.31;100972.94;5055006;28;45364;-72
2023/06/14 09:18:05;;;;;;;;;12.50;11.75;;;;;27.50;27.29;100972.06;5054825;28;45347;-72
2023/06/14 09:20:32;;;;;;;;;13.50;13.00;;;;;27.54;27.13;100965.22;5054058;28;46647;-72
2023/06/14 09:22:58;;;;;;;;;17.00;12.75;;;;;27.58;26.88;100968.47;5054408;28;45520;-69
2023/06/14 09:25:24;;;;;;;;;15.00;14.00;;;;;27.60;26.41;100970.03;5046585;28;46833;-69
2023/06/14 09:27:51;;;;;;;;;15.75;14.00;;;;;27.61;26.04;100957.97;5054893;28;45363;-69
2023/06/14 09:30:20;;;;;;;;;12.50;12.50;;;;;27.64;26.02;100971.41;5044880;28;46084;-73
2023/06/14 09:32:45;;;;;;;;;13.75;11.75;;;;;27.64;25.10;100965.03;5053972;28;45305;-72
2023/06/14 09:35:11;;;;;;;;;13.75;13.75;;;;;27.68;25.92;100974.66;5035471;28;45399;-71
2023/06/14 09:37:39;;;;;;;;;10.25;10.25;;;;;27.65;25.25;100973.09;5053227;28;45527;-70
2023/06/14 09:40:05;;;;;;;;;13.25;11.00;;;;;27.65;25.83;100966.72;5054433;28;45573;-72
2023/06/14 09:42:31;;;;;;;;;12.25;12.00;;;;;27.69;25.13;100973.63;5054433;28;45409;-70
2023/06/14 09:44:57;;;;;;;;;13.25;11.00;;;;;27.69;25.42;100973.63;5034705;28;45435;-70
2023/06/14 09:47:25;;;;;;;;;13.75;12.75;;;;;27.67;25.00;100962.75;5054490;28;45203;-74
2023/06/14 09:49:54;;;;;;;;;24.50;13.25;;;;;27.71;26.05;100969.66;5042874;28;46097;-71
2023/06/14 09:52:20;;;;;;;;;14.50;13.50;;;;;27.78;25.81;100978.06;5043524;28;45375;-71
2023/06/14 09:54:47;;;;;;;;;14.25;11.50;;;;;27.82;25.01;100977.53;5054151;28;45497;-69
2023/06/14 09:57:14;;;;;;;;;15.00;13.00;;;;;27.85;25.55;100977.19;5053864;28;45367;-70
2023/06/14 09:59:42;;;;;;;;;12.75;11.50;;;;;27.83;25.20;100972.88;5053969;28;46151;-72
2023/06/14 10:02:24;;;;;;;;;12.25;10.00;;;;;27.86;24.25;100981.66;5054199;28;45282;-71
2023/06/14 10:05:08;;;;;;;;;12.75;12.00;;;;;27.94;25.66;100978.03;5053938;28;45261;-71
2023/06/14 10:07:44;;;;;;;;;12.50;12.50;;;;;27.97;25.40;100971.31;5053949;28;45322;-72
2023/06/14 10:10:10;;;;;;;;;12.00;11.00;;;;;27.98;24.70;100965.63;5053488;28;46331;-70
2023/06/14 10:12:36;;;;;;;;;13.00;12.25;;;;;28.09;24.77;100979.00;5033154;28;45561;-73
2023/06/14 10:15:02;;;;;;;;;13.00;12.75;;;;;28.11;24.22;100978.81;5032658;28;45470;-68
2023/06/14 10:18:14;;;;;;;;;13.75;12.75;;;;;28.09;24.63;100969.88;5033960;28;46305;-74
2023/06/14 10:20:58;;;;;;;;;12.50;12.50;;;;;28.16;24.77;100987.44;5011677;28;45472;-74
2023/06/14 10:23:27;;;;;;;;;10.50;10.25;;;;;28.14;24.01;100982.09;5035388;28;45933;-71
2023/06/14 10:26:00;;;;;;;;;15.00;13.75;;;;;28.15;23.38;100989.34;5050601;28;45359;-72
2023/06/14 10:28:26;;;;;;;;;10.00;9.00;;;;;28.17;23.62;100981.75;5057770;28;45508;-72
2023/06/14 10:31:07;;;;;;;;;10.50;10.50;;;;;28.23;24.68;100975.53;5056820;28;45951;-73
2023/06/14 10:33:39;;;;;;;;;11.50;11.50;;;;;28.28;24.81;100969.47;5052353;28;45268;-72
2023/06/14 10:36:28;;;;;;;;;15.00;14.25;;;;;28.31;23.78;100971.03;5057399;28;45371;-72
2023/06/14 10:39:05;;;;;;;;;13.00;11.75;;;;;28.32;23.38;100967.22;5057249;28;45411;-73
2023/06/14 10:41:35;;;;;;;;;12.75;12.75;;;;;28.34;22.93;100967.88;5056614;28;45540;-73
2023/06/14 10:44:12;;;;;;;;;14.25;11.50;;;;;28.34;23.64;100976.16;5057106;28;45470;-73
2023/06/14 10:46:46;;;;;;;;;15.50;14.75;;;;;28.31;23.32;100969.13;5057223;28;45355;-73
2023/06/14 10:49:11;;;;;;;;;11.50;10.50;;;;;28.23;23.50;100953.50;5051170;28;45655;-75
2023/06/14 10:51:46;;;;;;;;;12.00;12.00;;;;;28.34;23.52;100968.75;5039165;28;45471;-74
2023/06/14 10:54:15;;;;;;;;;13.50;12.75;;;;;28.35;24.05;100972.38;5056098;28;45476;-73
2023/06/14 10:56:54;;;;;;;;;11.25;11.25;;;;;28.38;24.04;100958.22;5056433;28;45392;-70
2023/06/14 10:59:20;;;;;;;;;11.50;11.50;;;;;28.39;24.21;100963.56;5054117;28;45414;-71
2023/06/14 11:02:07;;;;;;;;;15.00;10.50;;;;;28.44;24.11;100966.63;5056700;28;46094;-72
2023/06/14 11:04:47;;;;;;;;;12.75;11.50;;;;;28.49;23.72;100968.88;5037083;28;45395;-70
2023/06/14 11:07:39;;;;;;;;;12.25;12.25;;;;;28.51;24.55;100966.75;5037329;28;45353;-70
2023/06/14 11:10:31;;;;;;;;;15.75;12.25;;;;;28.50;23.79;100959.53;5002203;28;45463;-69
2023/06/14 11:12:56;;;;;;;;;14.00;11.25;;;;;28.50;24.04;100962.28;5048608;28;46726;-73
2023/06/14 11:15:28;;;;;;;;;12.50;12.50;;;;;28.49;24.51;100964.22;5053540;28;45307;-69
2023/06/14 11:17:56;;;;;;;;;14.00;12.00;;;;;28.52;24.08;100957.44;5056767;28;45270;-71
2023/06/14 11:20:25;;;;;;;;;13.75;13.00;;;;;28.52;24.65;100960.22;5056141;28;45451;-71
2023/06/14 11:22:51;;;;;;;;;13.50;13.50;;;;;28.56;24.70;100961.56;5056246;28;46268;-69
2023/06/14 11:25:17;;;;;;;;;15.75;14.75;;;;;28.61;24.57;100964.63;5056105;28;45446;-72
2023/06/14 11:27:43;;;;;;;;;13.00;11.75;;;;;28.62;24.75;100960.84;5048951;28;45441;-70
2023/06/14 11:30:09;;;;;;;;;14.00;12.75;;;;;28.58;24.27;100942.94;5055333;28;45564;-70
2023/06/14 11:32:35;;;;;;;;;14.00;13.50;;;;;28.64;25.29;100952.38;5056117;28;46016;-69
2023/06/14 11:35:02;;;;;;;;;14.25;13.00;;;;;28.72;25.06;100960.59;5038097;28;45320;-69
2023/06/14 11:37:31;;;;;;;;;9.00;8.50;;;;;28.72;24.17;100944.91;5043348;28;45501;-70
2023/06/14 11:39:57;;;;;;;;;12.00;11.75;;;;;28.82;24.26;100956.59;5056180;28;45501;-70
2023/06/14 11:42:23;;;;;;;;;15.25;13.00;;;;;28.85;24.18;100958.97;5038039;28;47172;-72
2023/06/14 11:44:49;;;;;;;;;12.75;12.00;;;;;28.87;23.85;100956.91;5056102;28;45470;-70
2023/06/14 11:47:15;;;;;;;;;10.75;9.00;;;;;28.85;23.18;100941.56;5052381;28;45357;-71
2023/06/14 11:49:41;;;;;;;;;11.50;11.50;;;;;28.92;23.34;100948.91;5039292;28;45446;-72
2023/06/14 11:52:07;;;;;;;;;11.75;11.75;;;;;28.95;23.35;100948.56;5025301;28;45668;-72
2023/06/14 11:54:33;;;;;;;;;12.00;12.00;;;;;28.97;23.25;100953.91;5055930;28;45367;-71
2023/06/14 11:56:58;;;;;;;;;14.50;11.25;;;;;29.00;23.66;100950.78;5056254;28;45356;-72
2023/06/14 11:59:24;;;;;;;;;13.25;13.00;;;;;29.03;23.47;100955.91;5055905;28;45463;-73
2023/06/14 12:01:50;;;;;;;;;12.00;12.00;;;;;29.05;23.42;100956.59;5047761;28;45400;-71
2023/06/14 12:04:29;;;;;;;;;12.00;12.00;;;;;29.08;24.12;100956.22;5056211;28;45385;-69
2023/06/14 12:06:56;;;;;;;;;10.75;10.75;;;;;29.13;24.10;100953.75;5055915;28;45373;-72
2023/06/14 12:09:26;;;;;;;;;12.25;12.25;;;;;29.19;24.26;100952.16;5055659;28;45306;-71
2023/06/14 12:12:00;;;;;;;;;12.00;12.00;;;;;29.23;23.25;100956.28;5041309;28;46114;-72
2023/06/14 12:14:32;;;;;;;;;11.25;11.25;;;;;29.25;23.69;100957.81;5052505;28;45493;-72
2023/06/14 12:17:08;;;;;;;;;12.75;11.75;;;;;29.28;22.90;100949.13;5055976;28;45514;-70
2023/06/14 12:19:41;;;;;;;;;6.25;6.25;;;;;29.34;22.71;100964.13;5054530;28;45425;-71
2023/06/14 12:22:09;;;;;;;;;14.00;11.25;;;;;29.37;22.96;100963.75;5048812;28;46397;-71
2023/06/14 12:24:35;;;;;;;;;12.75;12.75;;;;;29.33;23.06;100952.22;5055593;28;45329;-70
2023/06/14 12:27:02;;;;;;;;;13.25;13.25;;;;;29.39;22.82;100958.91;5055591;28;45256;-71
2023/06/14 12:29:28;;;;;;;;;15.25;14.50;;;;;29.42;23.28;100954.91;5050793;28;45642;-68
2023/06/14 12:31:54;;;;;;;;;15.25;12.25;;;;;29.42;23.38;100946.63;5046053;28;46214;-71
2023/06/14 12:34:20;;;;;;;;;13.75;12.75;;;;;29.49;23.19;100942.06;5032846;28;45427;-70
2023/06/14 12:36:46;;;;;;;;;9.00;9.00;;;;;29.53;23.09;100946.16;5047488;28;45356;-71
2023/06/14 12:39:12;;;;;;;;;14.50;13.00;;;;;29.53;23.68;100952.53;5055602;28;45544;-73
2023/06/14 12:41:37;;;;;;;;;13.50;12.75;;;;;29.61;23.41;100951.59;5054692;28;46018;-72
2023/06/14 12:44:06;;;;;;;;;12.75;12.25;;;;;29.62;22.90;100942.25;5046299;28;45407;-71
2023/06/14 12:46:32;;;;;;;;;10.75;10.75;;;;;29.65;22.80;100951.03;5029225;28;45641;-69
2023/06/14 12:48:57;;;;;;;;;12.50;12.50;;;;;29.68;23.00;100949.81;5023260;28;46327;-75
2023/06/14 12:51:23;;;;;;;;;12.75;12.00;;;;;29.69;23.28;100948.75;5019894;28;47165;-71
2023/06/14 12:53:48;;;;;;;;;12.00;12.00;;;;;29.72;23.38;100949.22;5055201;28;45411;-72
2023/06/14 12:56:15;;;;;;;;;15.25;13.75;;;;;29.71;23.52;100928.16;5054699;28;45447;-72
2023/06/14 12:58:41;;;;;;;;;12.75;12.00;;;;;29.83;23.86;100938.75;5026964;28;45344;-71
2023/06/14 13:01:07;;;;;;;;;13.50;13.50;;;;;29.85;23.24;100933.91;5022756;28;45952;-73
2023/06/14 13:03:33;;;;;;;;;11.50;11.50;;;;;29.92;22.73;100938.47;5032146;28;45587;-71
2023/06/14 13:05:59;;;;;;;;;13.00;11.00;;;;;29.98;22.80;100943.25;5054765;28;45348;-72
2023/06/14 13:08:24;;;;;;;;;12.00;12.00;;;;;30.04;22.96;100947.16;5050700;28;45352;-71
2023/06/14 13:10:49;;;;;;;;;10.75;10.50;;;;;30.08;22.99;100954.88;5043191;28;46915;-71
2023/06/14 13:13:15;;;;;;;;;11.75;11.75;;;;;30.09;22.81;100947.47;5042526;28;47411;-71
2023/06/14 13:15:40;;;;;;;;;10.00;10.00;;;;;30.18;23.25;100937.16;5054922;28;45435;-72
2023/06/14 13:18:05;;;;;;;;;11.75;11.75;;;;;30.22;23.13;100931.03;5055053;28;45569;-72
2023/06/14 13:20:31;;;;;;;;;13.75;13.25;;;;;30.33;23.08;100936.06;5054349;28;47980;-71
2023/06/14 13:22:57;;;;;;;;;16.25;14.25;;;;;30.40;22.89;100947.19;5055010;28;45729;-70
2023/06/14 13:25:23;;;;;;;;;7.00;7.00;;;;;30.42;22.71;100934.91;5036914;28;45370;-70
2023/06/14 13:27:48;;;;;;;;;12.50;11.00;;;;;30.47;22.34;100929.63;5054654;28;45369;-71
2023/06/14 13:30:14;;;;;;;;;14.25;12.00;;;;;30.57;22.96;100932.09;5054659;28;46137;-69
2023/06/14 13:32:40;;;;;;;;;15.75;14.50;;;;;30.59;22.96;100924.47;5054045;28;45241;-72
2023/06/14 13:35:05;;;;;;;;;16.25;14.75;;;;;30.69;22.55;100930.56;5035728;28;45657;-70
2023/06/14 13:37:31;;;;;;;;;16.75;13.00;;;;;30.74;22.26;100941.00;5040940;28;45408;-72
2023/06/14 13:39:56;;;;;;;;;12.75;12.75;;;;;30.79;22.78;100933.81;5054489;28;46124;-70
2023/06/14 13:42:22;;;;;;;;;14.00;12.25;;;;;30.90;22.63;100940.75;5036400;28;45275;-70
2023/06/14 13:44:47;;;;;;;;;16.75;13.25;;;;;30.99;22.68;100939.56;5054186;28;49214;-72
2023/06/14 13:47:12;;;;;;;;;12.50;11.75;;;;;31.09;22.73;100937.34;5054368;28;45454;-71
2023/06/14 13:49:38;;;;;;;;;13.00;11.50;;;;;31.16;21.71;100941.03;5042680;28;46344;-71
2023/06/14 13:52:03;;;;;;;;;13.50;12.00;;;;;31.17;22.34;100936.34;5039433;28;45688;-72
2023/06/14 13:54:29;;;;;;;;;14.50;13.50;;;;;31.20;21.56;100942.38;5053846;28;45380;-71
2023/06/14 13:56:54;;;;;;;;;14.75;13.50;;;;;31.30;21.35;100932.84;5052786;28;46187;-71
2023/06/14 13:59:20;;;;;;;;;11.25;9.00;;;;;31.35;21.43;100928.41;5053816;28;46257;-68
2023/06/14 14:01:45;;;;;;;;;9.25;9.25;;;;;31.48;22.22;100941.50;5054137;28;47129;-70
2023/06/14 14:04:11;;;;;;;;;11.75;10.75;;;;;31.56;22.21;100942.19;5035994;28;45434;-71
2023/06/14 14:06:36;;;;;;;;;16.50;13.25;;;;;31.61;21.74;100944.38;5054161;28;45442;-72
2023/06/14 14:09:02;;;;;;;;;13.25;13.25;;;;;31.65;21.64;100945.72;5054002;28;45418;-71
2023/06/14 14:11:27;;;;;;;;;14.75;12.25;;;;;31.71;21.94;100941.28;5043017;28;45395;-71
2023/06/14 14:13:53;;;;;;;;;12.00;11.50;;;;;31.78;21.49;100939.41;5048117;28;45394;-72
2023/06/14 14:16:19;;;;;;;;;14.50;14.00;;;;;31.85;21.22;100937.53;5054187;28;45498;-71
2023/06/14 14:18:45;;;;;;;;;11.50;11.00;;;;;31.90;20.36;100930.28;5053663;28;45465;-71
2023/06/14 14:21:11;;;;;;;;;12.00;11.25;;;;;31.98;20.59;100947.84;5052453;28;45582;-71
2023/06/14 14:23:36;;;;;;;;;11.50;11.50;;;;;32.03;20.79;100940.63;5052973;28;45473;-72
2023/06/14 14:26:04;;;;;;;;;13.00;13.00;;;;;32.02;20.98;100926.94;5054246;28;45446;-71
2023/06/14 14:28:30;;;;;;;;;11.75;11.00;;;;;32.10;22.02;100933.19;5053778;28;47145;-72
2023/06/14 14:30:55;;;;;;;;;11.25;10.00;;;;;32.19;20.81;100928.34;5053824;28;45332;-70
2023/06/14 14:33:21;;;;;;;;;16.00;14.25;;;;;32.24;20.79;100923.03;5048837;28;45453;-69
2023/06/14 14:35:46;;;;;;;;;13.50;10.00;;;;;32.23;21.10;100924.97;5040592;28;45309;-72
2023/06/14 14:38:13;;;;;;;;;13.75;13.75;;;;;32.24;21.15;100921.09;5052280;28;45773;-71
2023/06/14 14:40:39;;;;;;;;;14.25;13.25;;;;;32.33;21.18;100926.50;5053567;28;45442;-71
2023/06/14 14:43:05;;;;;;;;;12.75;12.75;;;;;32.33;20.80;100921.78;5053681;28;45416;-72
2023/06/14 14:45:30;;;;;;;;;14.00;14.00;;;;;32.40;21.01;100925.47;5035616;28;45363;-71
2023/06/14 14:47:56;;;;;;;;;13.50;13.00;;;;;32.45;20.52;100927.59;5053436;28;45496;-70
2023/06/14 14:50:21;;;;;;;;;13.00;13.00;;;;;32.48;21.29;100927.19;5038222;28;45320;-70
2023/06/14 14:52:46;;;;;;;;;12.75;11.25;;;;;32.38;20.58;100930.34;5046735;28;45413;-71
2023/06/14 14:55:12;;;;;;;;;13.00;11.50;;;;;32.36;20.13;100926.91;5053312;28;45339;-71
2023/06/14 14:57:37;;;;;;;;;9.25;8.50;;;;;32.38;20.19;100930.34;5053664;28;46153;-68
2023/06/14 15:00:05;;;;;;;;;13.25;13.25;;;;;32.40;20.35;100921.81;5053801;28;45299;-70
2023/06/14 15:02:30;;;;;;;;;14.00;11.75;;;;;32.44;19.83;100925.88;5052294;28;45283;-70
2023/06/14 15:05:00;;;;;;;;;14.50;13.00;;;;;32.40;20.09;100930.16;5056848;28;45350;-71
2023/06/14 15:07:26;;;;;;;;;10.25;10.25;;;;;32.44;20.78;100926.72;5038240;28;46582;-70
2023/06/14 15:09:51;;;;;;;;;12.25;12.25;;;;;32.54;20.51;100921.63;5048093;28;45492;-71
2023/06/14 15:12:17;;;;;;;;;12.50;11.75;;;;;32.61;20.68;100921.66;5038166;28;45537;-72
2023/06/14 15:14:42;;;;;;;;;10.75;10.75;;;;;32.68;20.83;100928.94;5045228;28;45410;-72
2023/06/14 15:17:07;;;;;;;;;11.50;10.00;;;;;32.75;20.88;100920.63;5036273;28;45979;-75
2023/06/14 15:19:34;;;;;;;;;10.75;10.75;;;;;32.82;20.54;100918.75;5035328;28;48550;-73
2023/06/14 15:21:59;;;;;;;;;9.25;9.25;;;;;32.89;19.80;100924.31;5036285;28;45495;-73
2023/06/14 15:24:25;;;;;;;;;13.00;11.00;;;;;32.89;19.91;100915.97;5035155;28;45282;-72
2023/06/14 15:26:50;;;;;;;;;10.25;9.00;;;;;32.88;19.70;100909.56;5018041;28;45344;-71
2023/06/14 15:29:15;;;;;;;;;16.00;13.50;;;;;32.96;20.13;100919.63;5021713;28;45267;-72
2023/06/14 15:31:41;;;;;;;;;15.25;10.25;;;;;32.96;20.00;100914.06;5033394;28;45335;-71
2023/06/14 15:34:06;;;;;;;;;13.00;12.50;;;;;32.98;19.97;100923.91;5055273;28;46035;-71
2023/06/14 15:36:31;;;;;;;;;15.75;14.50;;;;;32.93;19.42;100915.31;5056178;28;46507;-71
2023/06/14 15:38:56;;;;;;;;;13.75;12.50;;;;;32.90;19.03;100918.56;5055366;28;51147;-71